Time;durP1;ratioP1;P1;durP2;ratioP2;P2;SDS_P1;SDS_P2;PMS_P1;PMS_P2;Temp;Humidity;BMP_temperature;BMP_pressure;BME280_temperature;BME280_humidity;BME280_pressure;Samples;Min_cycle;Max_cycle;Signal;HPM_P1;HPM_P2
2023/07/19 00:01:32;;;;;;;6.50;1.05;;;;;;;14.23;68.04;99985.09;5044198;28;20033;-72
2023/07/19 00:03:57;;;;;;;4.85;0.90;;;;;;;14.21;68.32;99989.53;5044053;28;20021;-72
2023/07/19 00:06:23;;;;;;;6.60;1.85;;;;;;;14.18;68.28;99973.09;5043966;28;20079;-72
2023/07/19 00:08:49;;;;;;;1.27;0.77;;;;;;;14.20;68.29;99984.34;5043788;28;20071;-71
2023/07/19 00:11:14;;;;;;;10.18;1.58;;;;;;;14.17;68.19;99972.22;5043833;28;20072;-72
2023/07/19 00:13:40;;;;;;;1.67;0.75;;;;;;;14.20;68.03;99969.53;5044051;28;20052;-74
2023/07/19 00:16:05;;;;;;;4.32;1.45;;;;;;;14.28;67.86;99966.69;5043889;28;20101;-72
2023/07/19 00:18:31;;;;;;;2.83;1.23;;;;;;;14.33;67.49;99963.94;5042494;28;20017;-72
2023/07/19 00:20:56;;;;;;;6.22;2.60;;;;;;;14.26;67.32;99963.28;5043755;28;20041;-72
2023/07/19 00:23:21;;;;;;;3.83;1.20;;;;;;;14.23;67.41;99977.25;5043996;28;20025;-72
2023/07/19 00:25:47;;;;;;;1.33;0.90;;;;;;;14.23;67.53;99969.44;5043659;28;20476;-72
2023/07/19 00:28:12;;;;;;;2.72;0.90;;;;;;;14.24;67.75;99965.06;5043718;28;20085;-72
2023/07/19 00:30:38;;;;;;;8.45;1.52;;;;;;;14.23;67.59;99955.53;5043832;28;20085;-72
2023/07/19 00:33:03;;;;;;;4.82;1.40;;;;;;;14.17;67.69;99959.19;5043875;28;20022;-72
2023/07/19 00:35:29;;;;;;;9.15;1.67;;;;;;;14.19;68.25;99956.53;5043714;28;20029;-72
2023/07/19 00:37:54;;;;;;;9.68;1.42;;;;;;;14.13;68.24;99955.84;5043774;28;20025;-72
2023/07/19 00:40:20;;;;;;;4.97;1.83;;;;;;;14.17;68.27;99951.34;5043847;28;20034;-72
2023/07/19 00:42:46;;;;;;;6.68;1.27;;;;;;;14.13;68.57;99961.06;5043604;28;20025;-72
2023/07/19 00:45:11;;;;;;;6.07;0.95;;;;;;;14.06;68.45;99937.78;5043898;28;20096;-71
2023/07/19 00:47:37;;;;;;;8.90;0.98;;;;;;;14.05;68.35;99938.69;5042175;28;20017;-72
2023/07/19 00:50:03;;;;;;;7.15;1.15;;;;;;;14.07;68.69;99945.59;5043752;28;20167;-71
2023/07/19 00:52:29;;;;;;;12.27;2.10;;;;;;;14.07;68.37;99942.09;5043597;28;20502;-72
2023/07/19 00:54:55;;;;;;;11.25;1.13;;;;;;;14.12;67.87;99941.06;5042207;28;20030;-71
2023/07/19 00:57:20;;;;;;;2.10;0.82;;;;;;;14.08;67.72;99931.63;5043023;28;20048;-74
2023/07/19 00:59:45;;;;;;;2.78;1.15;;;;;;;14.02;67.57;99931.81;5043527;28;20079;-72
2023/07/19 01:02:12;;;;;;;6.07;1.70;;;;;;;13.97;67.35;99933.69;5046777;28;20489;-74
2023/07/19 01:04:38;;;;;;;3.75;0.98;;;;;;;13.99;67.20;99935.34;5029753;28;20025;-73
2023/07/19 01:07:03;;;;;;;3.92;1.27;;;;;;;13.91;67.63;99919.09;5045869;28;20029;-74
2023/07/19 01:09:30;;;;;;;5.20;1.65;;;;;;;13.89;67.48;99931.31;5029411;28;20044;-74
2023/07/19 01:11:55;;;;;;;1.65;0.70;;;;;;;13.81;67.62;99936.78;5046794;28;20269;-73
2023/07/19 01:14:20;;;;;;;5.72;1.50;;;;;;;13.80;67.74;99929.81;5029222;28;20022;-73
2023/07/19 01:16:46;;;;;;;3.83;1.10;;;;;;;13.79;67.81;99924.66;5047306;28;20374;-73
2023/07/19 01:19:14;;;;;;;8.77;0.63;;;;;;;13.74;68.28;99927.41;5046792;28;20116;-73
2023/07/19 01:21:40;;;;;;;4.68;0.90;;;;;;;13.77;68.32;99927.31;5045584;28;20028;-74
2023/07/19 01:24:06;;;;;;;3.80;0.95;;;;;;;13.76;68.24;99928.22;5046740;28;20065;-74
2023/07/19 01:26:31;;;;;;;6.88;1.30;;;;;;;13.74;68.37;99916.97;5028781;28;20326;-74
2023/07/19 01:28:57;;;;;;;8.68;1.17;;;;;;;13.71;68.46;99923.13;5046786;28;20040;-74
2023/07/19 01:31:23;;;;;;;2.95;0.85;;;;;;;13.70;68.28;99913.63;5046683;28;20026;-74
2023/07/19 01:33:48;;;;;;;11.20;1.35;;;;;;;13.67;68.81;99924.13;5046876;28;20035;-74
2023/07/19 01:36:14;;;;;;;3.42;0.80;;;;;;;13.69;68.83;99924.09;5044974;28;20230;-75
2023/07/19 01:38:41;;;;;;;3.40;1.10;;;;;;;13.60;68.78;99914.78;5028774;28;20060;-73
2023/07/19 01:41:06;;;;;;;12.32;1.17;;;;;;;13.65;68.82;99928.53;5045236;28;20025;-73
2023/07/19 01:43:32;;;;;;;1.27;0.70;;;;;;;13.63;68.86;99925.09;5045290;28;20025;-73
2023/07/19 01:45:58;;;;;;;4.05;1.35;;;;;;;13.66;69.20;99929.41;5046704;28;20025;-73
2023/07/19 01:48:24;;;;;;;5.68;0.82;;;;;;;13.70;68.70;99916.22;5046360;28;20052;-74
2023/07/19 01:50:49;;;;;;;4.30;1.08;;;;;;;13.75;68.70;99926.53;5046454;28;20170;-73
2023/07/19 01:53:15;;;;;;;12.63;1.30;;;;;;;13.73;68.53;99917.88;5046445;28;20449;-73
2023/07/19 01:55:41;;;;;;;4.10;1.02;;;;;;;13.70;68.29;99918.84;5028624;28;20116;-74
2023/07/19 01:58:10;;;;;;;3.65;0.88;;;;;;;13.66;68.42;99908.53;5046020;28;20044;-74
2023/07/19 02:00:36;;;;;;;6.55;1.15;;;;;;;13.72;68.31;99916.19;5046700;28;20022;-73
2023/07/19 02:03:01;;;;;;;3.53;0.93;;;;;;;13.71;68.38;99906.63;5046429;28;20021;-75
2023/07/19 02:05:27;;;;;;;5.72;1.10;;;;;;;13.69;68.48;99898.84;5028528;28;20025;-74
2023/07/19 02:07:52;;;;;;;2.13;0.70;;;;;;;13.63;68.62;99894.69;5044476;28;20071;-74
2023/07/19 02:10:17;;;;;;;3.67;1.30;;;;;;;13.61;68.85;99901.69;5046451;28;20036;-74
2023/07/19 02:12:43;;;;;;;7.88;1.15;;;;;;;13.57;69.14;99905.28;5045995;28;20431;-74
2023/07/19 02:15:09;;;;;;;11.05;1.45;;;;;;;13.56;69.17;99898.34;5046004;28;20025;-75
2023/07/19 02:17:34;;;;;;;4.55;0.70;;;;;;;13.62;69.41;99906.03;5045990;28;20060;-74
2023/07/19 02:19:59;;;;;;;6.97;1.02;;;;;;;13.61;69.54;99906.91;5046006;28;20435;-74
2023/07/19 02:22:25;;;;;;;6.68;0.90;;;;;;;13.62;69.37;99908.63;5044692;28;20052;-73
2023/07/19 02:24:50;;;;;;;5.20;0.88;;;;;;;13.62;69.44;99895.59;5045787;28;20053;-74
2023/07/19 02:27:16;;;;;;;5.18;1.38;;;;;;;13.41;69.36;99864.88;5044085;28;20045;-74
2023/07/19 02:29:41;;;;;;;10.57;0.98;;;;;;;13.67;69.34;99899.81;5045958;28;20029;-74
2023/07/19 02:32:07;;;;;;;2.88;1.17;;;;;;;13.65;69.04;99883.34;5045820;28;20025;-74
2023/07/19 02:34:32;;;;;;;9.40;1.45;;;;;;;13.72;69.05;99895.31;5045788;28;20029;-74
2023/07/19 02:36:58;;;;;;;8.27;0.88;;;;;;;13.79;68.98;99885.53;5045707;28;20036;-74
2023/07/19 02:39:26;;;;;;;10.43;1.10;;;;;;;13.76;68.96;99870.81;5045504;28;20026;-73
2023/07/19 02:41:52;;;;;;;8.10;1.42;;;;;;;13.81;68.64;99874.16;5044035;28;20030;-74
2023/07/19 02:44:20;;;;;;;1.15;0.57;;;;;;;13.87;68.35;99881.78;5045648;28;20450;-73
2023/07/19 02:46:46;;;;;;;1.02;0.80;;;;;;;13.90;68.52;99883.44;5045512;28;20029;-74
2023/07/19 02:49:11;;;;;;;1.70;0.70;;;;;;;13.90;68.71;99886.06;5045462;28;20068;-74
2023/07/19 02:51:37;;;;;;;1.33;0.65;;;;;;;13.86;68.77;99877.50;5045462;28;20022;-73
2023/07/19 02:54:03;;;;;;;1.65;1.05;;;;;;;13.90;68.71;99880.84;5027372;28;20494;-74
2023/07/19 02:56:28;;;;;;;6.45;1.35;;;;;;;13.93;68.76;99878.13;5043904;28;20025;-72
2023/07/19 02:58:53;;;;;;;2.22;0.75;;;;;;;13.92;69.18;99873.81;5045202;28;20021;-73
2023/07/19 03:01:19;;;;;;;7.47;1.00;;;;;;;13.90;69.30;99872.19;5045208;28;20031;-75
2023/07/19 03:03:44;;;;;;;2.08;0.85;;;;;;;13.85;69.53;99867.94;5045149;28;20089;-75
2023/07/19 03:06:10;;;;;;;2.13;0.88;;;;;;;13.82;69.81;99862.81;5045171;28;20022;-75
2023/07/19 03:08:37;;;;;;;3.60;0.93;;;;;;;13.82;69.77;99869.78;5044995;28;20052;-75
2023/07/19 03:11:02;;;;;;;6.38;1.38;;;;;;;13.85;69.52;99867.94;5044636;28;20021;-73
2023/07/19 03:13:28;;;;;;;1.17;0.65;;;;;;;13.85;69.74;99867.94;5045017;28;20518;-73
2023/07/19 03:15:53;;;;;;;2.05;0.88;;;;;;;13.86;69.66;99867.06;5044907;28;20033;-74
2023/07/19 03:18:19;;;;;;;4.75;0.98;;;;;;;13.93;69.65;99872.06;5027149;28;20013;-73
2023/07/19 03:20:44;;;;;;;5.78;1.67;;;;;;;13.90;69.61;99857.34;5026928;28;20030;-73
2023/07/19 03:23:10;;;;;;;3.03;1.30;;;;;;;13.87;69.74;99852.22;5044295;28;20061;-74
2023/07/19 03:25:35;;;;;;;7.80;1.38;;;;;;;13.92;69.10;99859.91;5044602;28;20555;-73
2023/07/19 03:28:01;;;;;;;1.60;0.90;;;;;;;13.94;69.08;99855.50;5043244;28;20109;-74
2023/07/19 03:30:26;;;;;;;2.75;1.05;;;;;;;13.93;68.73;99859.03;5044662;28;20048;-74
2023/07/19 03:32:52;;;;;;;2.05;0.70;;;;;;;13.96;68.83;99848.50;5044641;28;20068;-73
2023/07/19 03:35:18;;;;;;;3.33;0.90;;;;;;;14.03;68.78;99851.75;5026784;28;20032;-75
2023/07/19 03:37:44;;;;;;;7.05;0.95;;;;;;;14.03;68.34;99851.75;5044530;28;20227;-74
2023/07/19 03:40:12;;;;;;;5.47;1.48;;;;;;;14.03;68.23;99850.00;5044640;28;20025;-74
2023/07/19 03:42:38;;;;;;;1.08;0.63;;;;;;;13.99;68.09;99853.63;5044334;28;20470;-74
2023/07/19 03:45:05;;;;;;;8.82;1.63;;;;;;;14.02;68.14;99850.91;5044454;28;20045;-74
2023/07/19 03:47:30;;;;;;;3.88;1.00;;;;;;;14.09;67.77;99836.75;5044097;28;20025;-74
2023/07/19 03:49:56;;;;;;;4.03;0.93;;;;;;;14.08;68.00;99844.63;5043217;28;20079;-74
2023/07/19 03:52:21;;;;;;;4.85;1.25;;;;;;;14.08;67.82;99842.00;5044263;28;20073;-74
2023/07/19 03:54:46;;;;;;;9.43;1.30;;;;;;;14.15;67.87;99846.16;5044462;28;20040;-75
2023/07/19 03:57:12;;;;;;;10.63;0.88;;;;;;;14.20;67.49;99851.22;5044025;28;20051;-75
2023/07/19 03:59:37;;;;;;;11.35;1.27;;;;;;;14.17;67.39;99848.72;5044257;28;20025;-75
2023/07/19 04:02:03;;;;;;;2.47;1.00;;;;;;;14.23;67.59;99851.94;5044196;28;20028;-75
2023/07/19 04:04:29;;;;;;;7.25;0.88;;;;;;;14.25;67.56;99844.94;5044334;28;20026;-74
2023/07/19 04:06:55;;;;;;;6.70;0.93;;;;;;;14.27;67.06;99839.66;5042724;28;20025;-74
2023/07/19 04:09:20;;;;;;;2.63;0.90;;;;;;;14.24;66.62;99837.16;5044035;28;20030;-74
2023/07/19 04:11:46;;;;;;;4.65;1.08;;;;;;;14.30;66.68;99839.56;5043916;28;20052;-74
2023/07/19 04:14:11;;;;;;;5.60;0.82;;;;;;;14.25;66.58;99836.25;5044075;28;20025;-74
2023/07/19 04:16:36;;;;;;;0.73;0.52;;;;;;;14.26;66.46;99837.97;5044287;28;20072;-74
2023/07/19 04:19:02;;;;;;;3.70;0.75;;;;;;;14.27;66.28;99837.03;5042726;28;20031;-74
2023/07/19 04:21:27;;;;;;;3.63;0.77;;;;;;;14.27;66.59;99834.44;5044060;28;20022;-74
2023/07/19 04:23:53;;;;;;;0.55;0.45;;;;;;;14.25;66.46;99842.31;5042207;28;20035;-74
2023/07/19 04:26:18;;;;;;;6.05;1.20;;;;;;;14.22;66.76;99828.50;5043717;28;20085;-74
2023/07/19 04:28:43;;;;;;;1.60;0.65;;;;;;;14.27;66.49;99836.19;5043909;28;20033;-74
2023/07/19 04:31:09;;;;;;;6.07;1.05;;;;;;;14.27;66.60;99830.97;5043756;28;20147;-74
2023/07/19 04:33:34;;;;;;;4.28;1.02;;;;;;;14.25;66.57;99833.63;5043766;28;20397;-74
2023/07/19 04:36:09;;;;;;;1.98;0.60;;;;;;;14.27;66.77;99829.22;5045310;28;20131;-74
2023/07/19 04:38:34;;;;;;;2.50;0.70;;;;;;;14.34;66.46;99832.47;5048055;28;20188;-73
2023/07/19 04:41:03;;;;;;;4.63;1.08;;;;;;;14.30;66.67;99815.19;5046599;28;20033;-74
2023/07/19 04:43:29;;;;;;;2.08;0.75;;;;;;;14.40;66.35;99829.66;5047853;28;20024;-74
2023/07/19 04:45:55;;;;;;;5.72;0.95;;;;;;;14.48;65.76;99825.03;5046393;28;20081;-73
2023/07/19 04:48:20;;;;;;;4.32;0.85;;;;;;;14.52;65.93;99835.38;5029638;28;20025;-74
2023/07/19 04:50:45;;;;;;;3.20;1.30;;;;;;;14.56;65.84;99824.78;5047820;28;20031;-74
2023/07/19 04:53:11;;;;;;;1.23;0.52;;;;;;;14.62;65.99;99814.09;5047796;28;20104;-74
2023/07/19 04:55:36;;;;;;;7.65;0.80;;;;;;;14.79;65.58;99823.13;5047558;28;20494;-73
2023/07/19 04:58:02;;;;;;;10.30;1.30;;;;;;;14.76;65.44;99823.22;5047543;28;20021;-74
2023/07/19 05:00:28;;;;;;;0.55;0.52;;;;;;;14.80;64.86;99819.63;5047579;28;20026;-73
2023/07/19 05:02:53;;;;;;;2.92;1.63;;;;;;;14.72;64.43;99803.34;5047535;28;20041;-74
2023/07/19 05:05:19;;;;;;;5.65;1.30;;;;;;;14.69;64.79;99804.31;5047406;28;20029;-74
2023/07/19 05:07:44;;;;;;;2.97;0.80;;;;;;;15.02;65.12;99816.22;5045908;28;20025;-74
2023/07/19 05:10:10;;;;;;;1.25;0.63;;;;;;;15.48;65.26;99818.03;5047290;28;20052;-74
2023/07/19 05:12:35;;;;;;;1.20;0.50;;;;;;;16.40;63.82;99821.41;5046148;28;20028;-74
2023/07/19 05:15:01;;;;;;;6.88;0.90;;;;;;;17.40;63.44;99819.69;5029650;28;20093;-73
2023/07/19 05:17:26;;;;;;;3.53;0.65;;;;;;;18.37;61.42;99800.19;5047756;28;20024;-74
2023/07/19 05:19:52;;;;;;;1.67;0.47;;;;;;;19.53;59.55;99810.81;5045978;28;20025;-74
2023/07/19 05:22:17;;;;;;;3.63;1.15;;;;;;;19.82;56.95;99815.38;5047293;28;20037;-75
2023/07/19 05:24:43;;;;;;;1.75;0.60;;;;;;;20.03;55.00;99808.03;5029119;28;20049;-75
2023/07/19 05:27:08;;;;;;;0.70;0.43;;;;;;;20.42;55.21;99807.59;5046944;28;20049;-75
2023/07/19 05:29:34;;;;;;;5.78;0.90;;;;;;;20.98;53.29;99806.91;5046757;28;20030;-75
2023/07/19 05:32:00;;;;;;;5.32;0.50;;;;;;;21.22;53.33;99816.88;5047093;28;20022;-75
2023/07/19 05:34:25;;;;;;;1.05;0.65;;;;;;;20.79;51.53;99805.38;5047231;28;20057;-76
2023/07/19 05:36:51;;;;;;;2.47;0.98;;;;;;;20.21;50.94;99813.19;5029159;28;20508;-74
2023/07/19 05:39:16;;;;;;;1.83;0.70;;;;;;;19.69;51.00;99815.22;5046795;28;20017;-74
2023/07/19 05:41:42;;;;;;;1.63;0.70;;;;;;;19.25;51.63;99822.84;5046679;28;20025;-74
2023/07/19 05:44:07;;;;;;;0.63;0.43;;;;;;;19.12;52.01;99817.41;5046997;28;20026;-75
2023/07/19 05:46:36;;;;;;;2.08;0.68;;;;;;;18.98;52.06;99815.47;5028127;28;20087;-75
2023/07/19 05:49:02;;;;;;;2.22;0.63;;;;;;;18.87;52.17;99813.44;5046712;28;20537;-76
2023/07/19 05:51:28;;;;;;;2.10;0.68;;;;;;;18.62;51.87;99809.47;5046897;28;20036;-76
2023/07/19 05:53:54;;;;;;;9.60;0.80;;;;;;;18.32;52.46;99818.00;5045278;28;20013;-77
2023/07/19 05:56:20;;;;;;;2.70;0.77;;;;;;;17.93;53.44;99814.59;5045116;28;20382;-75
2023/07/19 05:58:46;;;;;;;0.90;0.50;;;;;;;17.74;53.88;99820.75;5046498;28;20025;-75
2023/07/19 06:01:14;;;;;;;4.10;0.65;;;;;;;17.45;53.92;99813.34;5046507;28;20100;-76
2023/07/19 06:03:40;;;;;;;2.05;0.57;;;;;;;17.13;54.64;99822.66;5028547;28;20017;-76
2023/07/19 06:06:05;;;;;;;1.50;0.60;;;;;;;16.89;54.70;99813.19;5046132;28;20029;-75
2023/07/19 06:08:32;;;;;;;2.47;0.75;;;;;;;16.74;55.20;99809.50;5046261;28;20017;-77
2023/07/19 06:10:58;;;;;;;0.65;0.50;;;;;;;16.65;55.15;99821.22;5045026;28;20041;-76
2023/07/19 06:13:23;;;;;;;2.50;0.90;;;;;;;16.50;55.85;99819.25;5046014;28;20025;-76
2023/07/19 06:15:49;;;;;;;9.40;0.82;;;;;;;16.46;56.26;99823.78;5046230;28;20029;-76
2023/07/19 06:18:15;;;;;;;4.65;0.57;;;;;;;16.44;56.63;99826.47;5046230;28;20032;-76
2023/07/19 06:20:41;;;;;;;12.95;0.98;;;;;;;16.38;56.52;99825.84;5046092;28;20059;-76
2023/07/19 06:23:06;;;;;;;3.80;0.80;;;;;;;16.37;56.65;99825.03;5028227;28;20026;-76
2023/07/19 06:25:31;;;;;;;5.82;1.60;;;;;;;16.37;56.71;99827.66;5027942;28;20045;-75
2023/07/19 06:27:57;;;;;;;1.63;0.80;;;;;;;16.30;57.04;99828.81;5044283;28;20026;-75
2023/07/19 06:30:22;;;;;;;7.45;0.98;;;;;;;16.31;56.42;99827.91;5044549;28;20036;-75
2023/07/19 06:32:48;;;;;;;1.92;0.50;;;;;;;16.24;56.25;99827.31;5045975;28;20021;-75
2023/07/19 06:35:13;;;;;;;2.35;0.77;;;;;;;16.18;56.52;99830.19;5045916;28;20100;-75
2023/07/19 06:37:38;;;;;;;3.47;0.57;;;;;;;16.21;56.29;99832.66;5045704;28;20024;-75
2023/07/19 06:40:05;;;;;;;2.88;0.95;;;;;;;16.16;55.99;99837.25;5044507;28;20029;-76
2023/07/19 06:42:32;;;;;;;0.68;0.50;;;;;;;16.13;55.89;99832.13;5045686;28;20079;-76
2023/07/19 06:44:58;;;;;;;2.13;0.70;;;;;;;16.13;56.35;99819.03;5027759;28;20041;-74
2023/07/19 06:47:24;;;;;;;2.58;1.52;;;;;;;16.46;55.86;99840.34;5027486;28;20082;-74
2023/07/19 06:49:49;;;;;;;1.95;0.63;;;;;;;16.68;56.05;99839.44;5044263;28;20124;-75
2023/07/19 06:52:15;;;;;;;1.05;0.60;;;;;;;17.49;56.92;99839.44;5045531;28;20044;-75
2023/07/19 06:54:40;;;;;;;1.30;0.55;;;;;;;17.87;53.35;99830.66;5045551;28;20013;-75
2023/07/19 06:57:06;;;;;;;3.42;0.57;;;;;;;18.17;53.10;99841.47;5045258;28;20025;-75
2023/07/19 06:59:31;;;;;;;2.17;0.80;;;;;;;18.66;52.43;99839.06;5044579;28;20036;-75
2023/07/19 07:01:57;;;;;;;0.90;0.57;;;;;;;19.28;52.42;99842.91;5045163;28;20037;-74
2023/07/19 07:04:23;;;;;;;0.30;0.28;;;;;;;19.81;51.82;99840.00;5045440;28;20018;-75
2023/07/19 07:06:49;;;;;;;2.25;0.88;;;;;;;20.22;51.28;99833.34;5045264;28;20055;-75
2023/07/19 07:09:15;;;;;;;2.60;0.70;;;;;;;20.48;48.72;99843.28;5045021;28;20566;-76
2023/07/19 07:11:40;;;;;;;0.40;0.38;;;;;;;20.19;46.65;99844.06;5026860;28;20091;-76
2023/07/19 07:14:06;;;;;;;1.08;0.50;;;;;;;19.76;47.44;99848.16;5045179;28;20029;-75
2023/07/19 07:16:31;;;;;;;1.33;0.57;;;;;;;19.64;48.84;99849.72;5045097;28;20033;-75
2023/07/19 07:18:56;;;;;;;3.47;0.90;;;;;;;19.69;48.27;99857.34;5044916;28;20096;-74
2023/07/19 07:21:22;;;;;;;1.35;0.50;;;;;;;19.63;48.02;99847.16;5027326;28;20025;-73
2023/07/19 07:23:48;;;;;;;1.42;0.50;;;;;;;20.10;48.04;99844.56;5044688;28;20029;-74
2023/07/19 07:26:14;;;;;;;0.47;0.30;;;;;;;20.72;47.43;99840.97;5043288;28;20052;-73
2023/07/19 07:28:40;;;;;;;0.77;0.45;;;;;;;21.36;46.68;99860.03;5043180;28;20030;-73
2023/07/19 07:31:08;;;;;;;1.30;0.40;;;;;;;22.26;46.39;99848.16;5044709;28;20021;-74
2023/07/19 07:33:34;;;;;;;0.75;0.50;;;;;;;22.97;44.73;99852.28;5044662;28;20039;-75
2023/07/19 07:35:59;;;;;;;1.15;0.90;;;;;;;23.02;42.11;99850.97;5026669;28;20040;-74
2023/07/19 07:38:25;;;;;;;0.60;0.30;;;;;;;22.89;43.30;99855.47;5044567;28;20021;-74
2023/07/19 07:40:50;;;;;;;1.15;0.40;;;;;;;23.26;42.55;99854.66;5027020;28;20078;-74
2023/07/19 07:43:15;;;;;;;1.77;0.50;;;;;;;23.76;41.49;99848.50;5044245;28;20056;-74
2023/07/19 07:45:41;;;;;;;0.77;0.45;;;;;;;24.21;40.10;99853.19;5044478;28;20031;-73
2023/07/19 07:48:06;;;;;;;0.75;0.50;;;;;;;24.19;39.07;99847.16;5044229;28;20032;-74
2023/07/19 07:50:32;;;;;;;0.60;0.35;;;;;;;24.53;40.15;99854.34;5044717;28;20053;-74
2023/07/19 07:52:57;;;;;;;2.13;0.77;;;;;;;24.50;40.24;99852.78;5044610;28;20029;-72
2023/07/19 07:55:22;;;;;;;1.15;0.68;;;;;;;24.72;39.36;99845.81;5044401;28;20045;-73
2023/07/19 07:57:48;;;;;;;0.40;0.40;;;;;;;24.94;38.62;99864.56;5043931;28;20028;-74
2023/07/19 08:00:15;;;;;;;3.30;0.70;;;;;;;25.04;38.51;99860.22;5044520;28;20069;-73
2023/07/19 08:02:40;;;;;;;0.40;0.40;;;;;;;25.24;36.44;99850.69;5044348;28;20052;-74
2023/07/19 08:05:06;;;;;;;0.95;0.60;;;;;;;25.27;35.95;99848.75;5044161;28;20526;-73
2023/07/19 08:07:31;;;;;;;1.30;0.75;;;;;;;25.25;35.22;99863.00;5044094;28;20121;-74
2023/07/19 08:09:57;;;;;;;1.55;0.52;;;;;;;24.80;34.75;99853.19;5044174;28;20013;-75
2023/07/19 08:12:22;;;;;;;0.43;0.30;;;;;;;24.41;35.54;99858.78;5043753;28;20025;-74
2023/07/19 08:14:48;;;;;;;1.33;0.50;;;;;;;24.28;36.15;99861.53;5044199;28;20040;-74
2023/07/19 08:17:13;;;;;;;0.68;0.40;;;;;;;24.88;35.47;99856.09;5044281;28;20040;-74
2023/07/19 08:19:38;;;;;;;6.82;0.63;;;;;;;25.16;34.29;99857.56;5044050;28;20022;-75
2023/07/19 08:22:05;;;;;;;1.77;0.40;;;;;;;24.73;33.69;99860.78;5044089;28;20108;-76
2023/07/19 08:24:31;;;;;;;3.28;0.60;;;;;;;24.66;34.84;99851.59;5043866;28;20049;-75
2023/07/19 08:26:57;;;;;;;1.02;0.55;;;;;;;24.95;35.17;99860.97;5042452;28;20029;-76
2023/07/19 08:29:23;;;;;;;0.40;0.40;;;;;;;24.98;35.06;99866.03;5042475;28;20089;-75
2023/07/19 08:31:48;;;;;;;1.88;0.73;;;;;;;24.93;35.51;99860.22;5044230;28;20025;-74
2023/07/19 08:34:13;;;;;;;0.88;0.63;;;;;;;25.46;35.58;99864.06;5043937;28;20578;-75
2023/07/19 08:36:39;;;;;;;1.55;0.52;;;;;;;25.67;34.26;99856.19;5025998;28;20022;-75
2023/07/19 08:39:04;;;;;;;3.50;0.70;;;;;;;25.46;33.11;99856.91;5042655;28;20045;-75
2023/07/19 08:41:32;;;;;;;0.45;0.35;;;;;;;25.22;33.92;99873.88;5043559;28;20088;-70
2023/07/19 08:43:58;;;;;;;1.50;0.50;;;;;;;25.33;34.03;99874.81;5042575;28;20048;-70
2023/07/19 08:46:23;;;;;;;2.22;0.50;;;;;;;25.99;33.76;99868.66;5043733;28;20034;-68
2023/07/19 08:48:50;;;;;;;1.02;0.35;;;;;;;26.34;32.30;99852.56;5043440;28;20029;-69
2023/07/19 08:51:16;;;;;;;2.78;1.13;;;;;;;26.14;32.46;99865.69;5044252;28;20056;-69
2023/07/19 08:53:42;;;;;;;1.75;0.70;;;;;;;25.89;32.37;99864.22;5043515;28;20085;-69
2023/07/19 08:56:09;;;;;;;2.78;1.63;;;;;;;25.58;33.33;99876.34;5043926;28;20109;-69
2023/07/19 08:58:37;;;;;;;4.10;1.20;;;;;;;25.59;33.20;99872.72;5044323;28;20025;-70
2023/07/19 09:01:03;;;;;;;3.80;1.38;;;;;;;25.37;33.23;99865.63;5026933;28;20027;-69
2023/07/19 09:03:28;;;;;;;2.35;1.23;;;;;;;25.62;34.01;99864.53;5044620;28;20077;-69
2023/07/19 09:05:54;;;;;;;1.38;0.85;;;;;;;25.94;33.12;99865.53;5044547;28;20033;-70
2023/07/19 09:08:20;;;;;;;2.90;1.20;;;;;;;25.96;33.27;99870.75;5044388;28;20021;-71
2023/07/19 09:10:46;;;;;;;1.25;0.52;;;;;;;25.89;32.92;99865.06;5044427;28;20038;-69
2023/07/19 09:13:18;;;;;;;5.97;0.98;;;;;;;25.46;33.67;99874.69;5044211;28;20028;-71
2023/07/19 09:15:47;;;;;;;1.98;1.00;;;;;;;25.59;33.72;99872.72;5044358;28;20089;-69
2023/07/19 09:18:12;;;;;;;1.33;0.90;;;;;;;25.78;32.54;99865.09;5044234;28;20017;-70
2023/07/19 09:20:40;;;;;;;2.20;0.85;;;;;;;25.59;33.37;99869.25;5044424;28;20031;-68
2023/07/19 09:23:06;;;;;;;4.03;1.08;;;;;;;25.22;34.10;99867.72;5047308;28;20034;-65
2023/07/19 09:25:50;;;;;;;2.90;0.93;;;;;;;25.37;33.70;99870.94;5047833;28;20044;-65
2023/07/19 09:28:19;;;;;;;1.83;0.35;;;;;;;25.93;34.13;99868.31;5046569;28;20053;-66
2023/07/19 09:31:04;;;;;;;5.20;0.57;;;;;;;26.52;33.62;99859.97;5048014;28;20036;-65
2023/07/19 09:33:30;;;;;;;3.10;1.38;;;;;;;26.66;33.38;99861.47;5047830;28;20028;-66
2023/07/19 09:35:56;;;;;;;2.28;0.75;;;;;;;26.84;32.43;99856.34;5047785;28;20029;-65
2023/07/19 09:38:23;;;;;;;0.30;0.30;;;;;;;26.89;32.46;99862.13;5047514;28;20032;-65
2023/07/19 09:40:50;;;;;;;0.57;0.35;;;;;;;26.93;32.72;99868.88;5047761;28;20026;-65
2023/07/19 09:43:16;;;;;;;0.60;0.60;;;;;;;26.80;31.13;99854.94;5047694;28;20034;-66
2023/07/19 09:45:43;;;;;;;1.98;0.73;;;;;;;25.99;32.37;99871.31;5047611;28;20078;-65
2023/07/19 09:48:08;;;;;;;0.90;0.50;;;;;;;25.56;32.45;99867.66;5047444;28;20037;-66
2023/07/19 09:50:39;;;;;;;0.57;0.38;;;;;;;24.92;32.16;99862.03;5047576;28;20025;-66
2023/07/19 09:53:07;;;;;;;0.88;0.40;;;;;;;24.28;33.21;99863.34;5047838;28;20076;-66
2023/07/19 09:55:33;;;;;;;1.33;0.70;;;;;;;24.22;33.58;99859.31;5047523;28;20021;-65
2023/07/19 09:58:00;;;;;;;1.83;0.60;;;;;;;24.32;33.74;99860.34;5047167;28;20021;-66
2023/07/19 10:00:26;;;;;;;2.58;0.80;;;;;;;24.87;33.05;99853.56;5047270;28;20021;-66
2023/07/19 10:02:51;;;;;;;9.05;1.00;;;;;;;25.15;32.59;99856.72;5047086;28;20135;-66
2023/07/19 10:05:25;;;;;;;1.67;0.70;;;;;;;25.24;32.08;99853.34;5046425;28;20049;-66
2023/07/19 10:07:50;;;;;;;0.75;0.43;;;;;;;24.98;33.61;99858.06;5046162;28;20037;-66
2023/07/19 10:10:16;;;;;;;0.70;0.30;;;;;;;25.00;33.39;99856.13;5046465;28;20021;-64
2023/07/19 10:12:47;;;;;;;1.55;0.80;;;;;;;24.76;33.97;99859.72;5045916;28;20036;-66
2023/07/19 10:15:14;;;;;;;1.45;0.82;;;;;;;24.75;34.22;99868.63;5046481;28;20379;-67
2023/07/19 10:17:58;;;;;;;1.58;0.60;;;;;;;24.42;34.16;99864.94;5028273;28;20033;-67
2023/07/19 10:20:32;;;;;;;1.00;0.50;;;;;;;24.78;33.00;99870.22;5045973;28;20444;-67
2023/07/19 10:23:06;;;;;;;2.83;0.60;;;;;;;24.94;32.60;99865.41;5045954;28;20105;-69
2023/07/19 10:25:36;;;;;;;2.67;0.63;;;;;;;25.13;33.76;99870.13;5045423;28;20056;-67
2023/07/19 10:28:04;;;;;;;4.30;0.90;;;;;;;25.46;32.43;99870.19;5044039;28;20022;-69
2023/07/19 10:30:49;;;;;;;1.88;0.70;;;;;;;25.20;32.96;99865.19;5045809;28;20032;-69
2023/07/19 10:33:15;;;;;;;0.57;0.47;;;;;;;25.46;32.49;99874.69;5045675;28;20018;-66
2023/07/19 10:35:42;;;;;;;1.90;0.65;;;;;;;25.56;32.48;99874.81;5045845;28;20025;-66
2023/07/19 10:38:23;;;;;;;0.85;0.85;;;;;;;25.29;32.79;99866.25;5045741;28;20021;-66
2023/07/19 10:40:59;;;;;;;2.03;0.55;;;;;;;25.55;32.48;99867.78;5045709;28;20017;-71
2023/07/19 10:43:31;;;;;;;2.95;0.60;;;;;;;25.86;32.13;99855.50;5045497;28;20021;-65
2023/07/19 10:45:59;;;;;;;0.85;0.30;;;;;;;26.15;32.08;99858.56;5044088;28;20036;-67
2023/07/19 10:48:27;;;;;;;3.08;0.82;;;;;;;26.21;31.72;99861.56;5045238;28;20025;-67
2023/07/19 10:51:05;;;;;;;1.15;0.52;;;;;;;26.19;31.12;99833.38;5045255;28;20032;-66
2023/07/19 10:53:41;;;;;;;1.85;0.63;;;;;;;25.74;32.40;99864.50;5044123;28;20068;-69
2023/07/19 10:56:07;;;;;;;4.10;0.73;;;;;;;26.16;32.62;99849.59;5045568;28;20313;-69
2023/07/19 10:58:32;;;;;;;0.50;0.43;;;;;;;26.19;32.07;99852.00;5045118;28;20022;-67
2023/07/19 11:00:58;;;;;;;0.68;0.45;;;;;;;26.31;31.16;99852.81;5044020;28;20136;-70
2023/07/19 11:03:26;;;;;;;1.65;0.60;;;;;;;26.01;31.72;99846.44;5045050;28;20027;-69
2023/07/19 11:05:52;;;;;;;0.80;0.40;;;;;;;25.58;32.70;99854.25;5044785;28;20433;-64
2023/07/19 11:08:22;;;;;;;1.33;0.50;;;;;;;24.77;33.18;99853.44;5044937;28;20025;-65
2023/07/19 11:10:49;;;;;;;0.82;0.47;;;;;;;24.18;33.96;99863.16;5027325;28;20036;-64
2023/07/19 11:13:16;;;;;;;1.10;0.50;;;;;;;23.51;34.43;99845.00;5044765;28;20035;-65
2023/07/19 11:15:46;;;;;;;0.32;0.30;;;;;;;23.10;34.98;99857.56;5045046;28;20033;-66
2023/07/19 11:18:12;;;;;;;0.95;0.50;;;;;;;22.70;34.83;99855.88;5026924;28;20013;-66
2023/07/19 11:20:39;;;;;;;3.42;0.55;;;;;;;22.33;36.38;99859.19;5044870;28;20037;-68
2023/07/19 11:23:07;;;;;;;2.38;0.68;;;;;;;22.08;37.21;99871.41;5044882;28;20018;-71
2023/07/19 11:25:33;;;;;;;0.98;0.60;;;;;;;22.04;37.56;99861.00;5026765;28;20041;-66
2023/07/19 11:27:58;;;;;;;3.22;0.40;;;;;;;21.97;38.52;99867.66;5044238;28;20030;-66
2023/07/19 11:30:35;;;;;;;1.88;0.50;;;;;;;21.74;38.29;99863.81;5044875;28;20026;-66